createdAt,value
2022-08-19T00:00:20.638Z,5.17
2022-08-19T00:01:32.837Z,5.13
2022-08-19T00:02:50.415Z,6.10
2022-08-19T00:04:03.904Z,5.50
2022-08-19T00:05:16.468Z,5.27
2022-08-19T00:06:28.436Z,6.00
2022-08-19T00:07:39.905Z,5.10
2022-08-19T00:08:52.365Z,5.43
2022-08-19T00:10:05.073Z,4.50
2022-08-19T00:11:18.626Z,5.43
2022-08-19T00:12:39.521Z,5.17
2022-08-19T00:13:58.599Z,4.87
2022-08-19T00:15:15.049Z,4.87
2022-08-19T00:16:27.158Z,4.67
2022-08-19T00:17:42.046Z,4.90
2022-08-19T00:18:54.803Z,4.97
2022-08-19T00:20:06.855Z,5.37
2022-08-19T00:21:19.068Z,4.97
2022-08-19T00:22:30.647Z,5.17
2022-08-19T00:23:44.012Z,5.83
2022-08-19T00:24:55.610Z,5.87
2022-08-19T00:26:08.939Z,4.80
2022-08-19T00:27:25.698Z,4.93
2022-08-19T00:28:38.534Z,5.37
2022-08-19T00:29:52.756Z,6.13
2022-08-19T00:31:05.587Z,6.07
2022-08-19T00:32:17.112Z,5.57
2022-08-19T00:33:33.510Z,5.60
2022-08-19T00:34:44.988Z,5.63
2022-08-19T00:35:56.611Z,5.50
2022-08-19T00:37:08.098Z,5.90
2022-08-19T00:38:36.311Z,6.10
2022-08-19T00:39:50.275Z,6.03
2022-08-19T00:41:01.853Z,5.40
2022-08-19T00:42:16.603Z,4.77
2022-08-19T00:43:28.954Z,5.60
2022-08-19T00:44:40.436Z,6.53
2022-08-19T00:45:52.735Z,5.60
2022-08-19T00:47:04.317Z,5.63
2022-08-19T00:48:21.653Z,6.70
2022-08-19T00:49:44.744Z,6.47
2022-08-19T00:50:56.651Z,6.43
2022-08-19T00:52:13.751Z,5.73
2022-08-19T00:53:27.459Z,5.50
2022-08-19T00:54:40.152Z,5.93
2022-08-19T00:55:53.530Z,5.23
2022-08-19T00:57:07.208Z,5.43
2022-08-19T00:58:20.034Z,5.60
2022-08-19T01:00:00.880Z,5.33
2022-08-19T01:01:04.567Z,5.20
2022-08-19T01:02:16.864Z,5.40
2022-08-19T01:03:28.663Z,5.20
2022-08-19T01:04:55.689Z,5.30
2022-08-19T01:06:07.351Z,5.40
2022-08-19T01:07:19.700Z,5.10
2022-08-19T01:08:31.393Z,4.90
2022-08-19T01:09:42.934Z,5.03
2022-08-19T01:10:55.921Z,5.47
2022-08-19T01:12:07.940Z,5.23
2022-08-19T01:13:20.945Z,5.07
2022-08-19T01:14:32.691Z,5.67
2022-08-19T01:15:56.035Z,4.97
2022-08-19T01:17:09.395Z,4.77
2022-08-19T01:18:22.594Z,5.40
2022-08-19T01:19:44.436Z,4.93
2022-08-19T01:20:59.044Z,4.73
2022-08-19T01:22:28.700Z,5.30
2022-08-19T01:23:43.985Z,5.50
2022-08-19T01:24:55.535Z,5.03
2022-08-19T01:26:08.089Z,4.77
2022-08-19T01:27:19.686Z,5.97
2022-08-19T01:28:33.902Z,5.57
2022-08-19T01:29:46.266Z,6.17
2022-08-19T01:30:57.735Z,5.80
2022-08-19T01:32:10.339Z,5.80
2022-08-19T01:33:41.818Z,5.90
2022-08-19T01:34:54.266Z,6.17
2022-08-19T01:36:09.165Z,5.20
2022-08-19T01:37:24.943Z,6.60
2022-08-19T01:38:44.074Z,5.43
2022-08-19T01:39:56.088Z,5.70
2022-08-19T01:41:11.024Z,5.83
2022-08-19T01:42:28.149Z,5.43
2022-08-19T01:44:13.278Z,6.03
2022-08-19T01:45:13.605Z,5.67
2022-08-19T01:46:25.255Z,6.03
2022-08-19T01:47:37.748Z,5.27
2022-08-19T01:48:49.250Z,4.60
2022-08-19T01:50:00.728Z,6.00
2022-08-19T01:51:12.772Z,5.73
2022-08-19T01:52:24.321Z,5.43
2022-08-19T01:53:36.487Z,6.27
2022-08-19T01:54:47.958Z,5.93
2022-08-19T01:55:59.975Z,6.70
2022-08-19T01:57:13.316Z,6.53
2022-08-19T01:58:27.111Z,5.40
2022-08-19T01:59:40.369Z,5.97
2022-08-19T02:00:51.840Z,6.10
2022-08-19T02:02:04.554Z,6.23
2022-08-19T02:03:16.969Z,5.60
2022-08-19T02:04:28.539Z,5.57
2022-08-19T02:05:40.994Z,6.33
2022-08-19T02:06:52.469Z,6.90
2022-08-19T02:08:04.065Z,6.50
2022-08-19T02:09:15.599Z,5.60
2022-08-19T02:10:27.324Z,6.33
2022-08-19T02:11:39.187Z,5.83
2022-08-19T02:12:50.883Z,6.37
2022-08-19T02:14:06.736Z,5.90
2022-08-19T02:15:20.427Z,6.23
2022-08-19T02:16:32.100Z,6.40
2022-08-19T02:17:46.273Z,5.67
2022-08-19T02:18:58.159Z,5.80
2022-08-19T02:20:09.983Z,5.13
2022-08-19T02:21:22.493Z,5.43
2022-08-19T02:22:34.075Z,5.80
2022-08-19T02:23:47.829Z,5.53
2022-08-19T02:24:59.757Z,5.97
2022-08-19T02:26:11.457Z,5.40
2022-08-19T02:27:23.384Z,5.40
2022-08-19T02:28:35.055Z,5.00
2022-08-19T02:29:49.906Z,5.37
2022-08-19T02:31:03.477Z,5.83
2022-08-19T02:32:15.058Z,5.17
2022-08-19T02:33:26.549Z,5.43
2022-08-19T02:34:38.163Z,4.80
2022-08-19T02:35:49.646Z,5.53
2022-08-19T02:37:03.740Z,5.10
2022-08-19T02:38:27.791Z,5.40
2022-08-19T02:39:39.335Z,4.90
2022-08-19T02:40:52.879Z,5.97
2022-08-19T02:42:04.541Z,5.17
2022-08-19T02:43:16.598Z,4.87
2022-08-19T02:44:31.817Z,5.50
2022-08-19T02:45:43.609Z,5.77
2022-08-19T02:46:56.100Z,5.40
2022-08-19T02:48:12.703Z,5.63
2022-08-19T02:49:34.954Z,5.00
2022-08-19T02:50:53.268Z,6.03
2022-08-19T02:52:05.280Z,5.10
2022-08-19T02:53:16.780Z,5.43
2022-08-19T02:54:29.019Z,5.17
2022-08-19T02:55:46.322Z,5.30
2022-08-19T02:56:58.058Z,4.90
2022-08-19T02:58:09.633Z,4.97
2022-08-19T02:59:23.029Z,5.40
2022-08-19T03:00:34.768Z,5.40
2022-08-19T03:01:53.615Z,5.57
2022-08-19T03:03:07.896Z,5.70
2022-08-19T03:04:20.437Z,6.17
2022-08-19T03:05:45.985Z,5.97
2022-08-19T03:07:07.169Z,5.33
2022-08-19T03:08:22.507Z,5.30
2022-08-19T03:09:33.998Z,5.00
2022-08-19T03:10:47.984Z,4.50
2022-08-19T03:11:59.481Z,5.23
2022-08-19T03:13:12.084Z,5.73
2022-08-19T03:14:24.217Z,5.43
2022-08-19T03:15:35.677Z,5.40
2022-08-19T03:16:49.235Z,5.73
2022-08-19T03:18:00.798Z,5.00
2022-08-19T03:19:14.038Z,4.70
2022-08-19T03:20:26.803Z,5.47
2022-08-19T03:21:38.289Z,5.97
2022-08-19T03:22:49.775Z,4.97
2022-08-19T03:24:03.688Z,4.90
2022-08-19T03:25:15.817Z,4.77
2022-08-19T03:26:28.370Z,4.50
2022-08-19T03:27:39.867Z,4.73
2022-08-19T03:28:58.138Z,4.80
2022-08-19T03:30:11.816Z,5.43
2022-08-19T03:31:44.857Z,5.07
2022-08-19T03:32:56.961Z,4.37
2022-08-19T03:34:08.874Z,4.87
2022-08-19T03:35:21.277Z,4.70
2022-08-19T03:36:32.845Z,5.17
2022-08-19T03:37:44.331Z,5.07
2022-08-19T03:38:59.813Z,4.80
2022-08-19T03:40:14.480Z,4.73
2022-08-19T03:41:34.343Z,4.47
2022-08-19T03:42:56.786Z,5.33
2022-08-19T03:44:09.478Z,5.20
2022-08-19T03:45:28.545Z,4.40
2022-08-19T03:46:40.381Z,4.40
2022-08-19T03:47:56.182Z,4.50
2022-08-19T03:49:10.347Z,5.30
2022-08-19T03:50:21.925Z,5.30
2022-08-19T03:51:35.844Z,7.50
2022-08-19T03:52:51.777Z,7.00
2022-08-19T03:54:04.626Z,6.67
2022-08-19T03:55:16.437Z,7.90
2022-08-19T03:56:28.890Z,9.63
2022-08-19T03:57:40.371Z,8.03
2022-08-19T03:58:53.297Z,6.80
2022-08-19T04:00:13.670Z,7.63
2022-08-19T04:01:34.899Z,7.57
2022-08-19T04:03:00.059Z,7.17
2022-08-19T04:04:12.899Z,7.37
2022-08-19T04:05:24.732Z,7.77
2022-08-19T04:06:40.210Z,6.47
2022-08-19T04:07:51.712Z,7.67
2022-08-19T04:09:04.732Z,7.30
2022-08-19T04:10:16.218Z,6.37
2022-08-19T04:11:43.479Z,7.77
2022-08-19T04:12:55.857Z,8.07
2022-08-19T04:14:07.413Z,7.90
2022-08-19T04:15:19.143Z,8.37
2022-08-19T04:16:31.700Z,8.07
2022-08-19T04:17:47.266Z,7.00
2022-08-19T04:19:01.280Z,7.67
2022-08-19T04:20:13.201Z,7.87
2022-08-19T04:21:25.809Z,7.43
2022-08-19T04:22:37.282Z,7.80
2022-08-19T04:23:48.925Z,8.17
2022-08-19T04:25:00.427Z,8.03
2022-08-19T04:26:15.343Z,7.80
2022-08-19T04:27:27.469Z,7.07
2022-08-19T04:28:39.154Z,7.23
2022-08-19T04:29:50.742Z,7.77
2022-08-19T04:31:02.298Z,8.60
2022-08-19T04:32:16.201Z,7.77
2022-08-19T04:33:29.613Z,8.30
2022-08-19T04:35:02.021Z,8.60
2022-08-19T04:36:21.487Z,7.47
2022-08-19T04:37:34.873Z,8.33
2022-08-19T04:38:47.202Z,8.43
2022-08-19T04:40:17.049Z,8.40
2022-08-19T04:41:47.146Z,8.47
2022-08-19T04:42:58.672Z,8.60
2022-08-19T04:44:12.795Z,8.10
2022-08-19T04:45:24.322Z,8.20
2022-08-19T04:46:40.363Z,8.37
2022-08-19T04:48:26.295Z,8.83
2022-08-19T04:49:34.878Z,7.67
2022-08-19T04:50:46.402Z,7.80
2022-08-19T04:52:00.785Z,7.30
2022-08-19T04:53:12.816Z,7.37
2022-08-19T04:54:37.489Z,6.80
2022-08-19T04:55:50.515Z,7.67
2022-08-19T04:57:01.982Z,7.57
2022-08-19T04:58:13.502Z,7.70
2022-08-19T04:59:25.047Z,7.90
2022-08-19T05:00:38.671Z,8.20
2022-08-19T05:01:52.452Z,7.00
2022-08-19T05:03:04.047Z,7.27
2022-08-19T05:04:20.295Z,7.10
2022-08-19T05:05:45.049Z,7.57
2022-08-19T05:07:00.899Z,7.13
2022-08-19T05:08:14.158Z,8.13
2022-08-19T05:09:26.822Z,7.37
2022-08-19T05:10:40.828Z,8.73
2022-08-19T05:11:54.527Z,7.97
2022-08-19T05:13:06.058Z,7.53
2022-08-19T05:14:17.630Z,8.73
2022-08-19T05:15:29.201Z,7.57
2022-08-19T05:16:41.517Z,8.10
2022-08-19T05:18:11.383Z,6.93
2022-08-19T05:19:41.603Z,7.03
2022-08-19T05:21:11.723Z,7.10
2022-08-19T05:22:38.430Z,6.40
2022-08-19T05:23:50.767Z,6.87
2022-08-19T05:25:12.599Z,6.03
2022-08-19T05:26:27.006Z,6.70
2022-08-19T05:27:38.685Z,7.40
2022-08-19T05:28:53.034Z,7.00
2022-08-19T05:30:06.567Z,6.30
2022-08-19T05:31:18.100Z,6.57
2022-08-19T05:32:29.614Z,7.00
2022-08-19T05:33:41.095Z,6.00
2022-08-19T05:34:52.692Z,7.20
2022-08-19T05:36:04.418Z,6.47
2022-08-19T05:37:15.920Z,7.37
2022-08-19T05:38:28.456Z,7.40
2022-08-19T05:39:40.750Z,7.50
2022-08-19T05:40:52.254Z,6.70
2022-08-19T05:42:07.926Z,7.07
2022-08-19T05:43:19.434Z,6.93
2022-08-19T05:44:32.706Z,6.80
2022-08-19T05:45:44.867Z,6.57
2022-08-19T05:46:56.371Z,7.53
2022-08-19T05:48:07.930Z,7.07
2022-08-19T05:49:20.041Z,6.87
2022-08-19T05:50:31.549Z,7.33
2022-08-19T05:51:43.725Z,7.23
2022-08-19T05:52:55.389Z,6.47
2022-08-19T05:54:08.173Z,6.40
2022-08-19T05:55:21.326Z,7.13
2022-08-19T05:56:32.927Z,5.87
2022-08-19T05:57:44.438Z,7.27
2022-08-19T05:58:55.902Z,6.33
2022-08-19T06:00:11.786Z,11.03
2022-08-19T06:01:23.450Z,9.67
2022-08-19T06:02:36.467Z,7.57
2022-08-19T06:03:48.766Z,7.80
2022-08-19T06:05:00.329Z,7.13
2022-08-19T06:06:13.130Z,7.93
2022-08-19T06:07:24.652Z,9.90
2022-08-19T06:08:38.237Z,7.70
2022-08-19T06:10:00.537Z,6.87
2022-08-19T06:11:23.294Z,7.87
2022-08-19T06:12:36.069Z,12.30
2022-08-19T06:13:51.977Z,9.20
2022-08-19T06:15:12.698Z,11.87
2022-08-19T06:16:24.265Z,10.70
2022-08-19T06:17:36.270Z,10.10
2022-08-19T06:18:47.773Z,7.63
2022-08-19T06:19:59.695Z,7.60
2022-08-19T06:21:11.479Z,8.27
2022-08-19T06:22:22.995Z,7.83
2022-08-19T06:23:35.023Z,7.67
2022-08-19T06:24:46.658Z,7.73
2022-08-19T06:25:58.203Z,7.37
2022-08-19T06:27:09.853Z,6.67
2022-08-19T06:28:22.046Z,6.40
2022-08-19T06:29:34.955Z,6.73
2022-08-19T06:30:46.455Z,6.53
2022-08-19T06:31:59.430Z,6.43
2022-08-19T06:33:10.976Z,6.73
2022-08-19T06:34:22.550Z,6.73
2022-08-19T06:35:34.098Z,6.70
2022-08-19T06:36:47.215Z,6.23
2022-08-19T06:37:58.829Z,6.37
2022-08-19T06:39:11.921Z,6.10
2022-08-19T06:40:23.627Z,6.80
2022-08-19T06:41:39.480Z,8.80
2022-08-19T06:42:55.198Z,17.63
2022-08-19T06:44:08.446Z,9.80
2022-08-19T06:45:34.836Z,7.87
2022-08-19T06:46:54.642Z,7.83
2022-08-19T06:48:06.541Z,7.57
2022-08-19T06:49:18.609Z,7.47
2022-08-19T06:50:30.337Z,5.93
2022-08-19T06:51:44.296Z,6.33
2022-08-19T06:52:55.910Z,5.87
2022-08-19T06:54:08.212Z,6.30
2022-08-19T06:55:33.533Z,6.10
2022-08-19T06:56:46.967Z,5.67
2022-08-19T06:57:58.448Z,5.60
2022-08-19T06:59:15.049Z,5.77
2022-08-19T07:00:26.944Z,5.63
2022-08-19T07:01:39.642Z,6.87
2022-08-19T07:02:56.171Z,6.90
2022-08-19T07:04:12.090Z,6.57
2022-08-19T07:05:23.881Z,6.20
2022-08-19T07:06:44.164Z,6.97
2022-08-19T07:08:01.621Z,6.00
2022-08-19T07:09:19.240Z,6.00
2022-08-19T07:10:33.968Z,5.67
2022-08-19T07:11:46.867Z,5.47
2022-08-19T07:12:58.392Z,6.23
2022-08-19T07:14:18.955Z,6.53
2022-08-19T07:15:31.895Z,4.93
2022-08-19T07:16:43.425Z,5.80
2022-08-19T07:17:54.914Z,6.00
2022-08-19T07:19:11.614Z,4.90
2022-08-19T07:20:28.666Z,5.17
2022-08-19T07:21:42.394Z,6.05
2022-08-19T07:22:53.981Z,5.40
2022-08-19T07:24:07.220Z,6.90
2022-08-19T07:25:19.569Z,4.93
2022-08-19T07:26:33.152Z,4.72
2022-08-19T07:27:46.271Z,5.15
2022-08-19T07:28:58.582Z,5.50
2022-08-19T07:30:14.480Z,5.22
2022-08-19T07:31:27.043Z,4.60
2022-08-19T07:32:43.431Z,4.85
2022-08-19T07:33:56.546Z,5.30
2022-08-19T07:35:08.536Z,5.15
2022-08-19T07:36:22.125Z,5.65
2022-08-19T07:37:36.895Z,6.30
2022-08-19T07:38:49.609Z,5.10
2022-08-19T07:40:02.207Z,5.07
2022-08-19T07:41:16.003Z,5.30
2022-08-19T07:42:27.771Z,6.75
2022-08-19T07:43:39.901Z,6.80
2022-08-19T07:44:51.395Z,5.65
2022-08-19T07:46:02.994Z,5.22
2022-08-19T07:47:48.215Z,5.50
2022-08-19T07:48:48.826Z,4.72
2022-08-19T07:50:05.378Z,4.38
2022-08-19T07:51:36.074Z,5.65
2022-08-19T07:52:50.463Z,5.30
2022-08-19T07:54:02.058Z,5.28
2022-08-19T07:55:40.101Z,4.93
2022-08-19T07:56:45.480Z,5.28
2022-08-19T07:57:57.040Z,4.60
2022-08-19T07:59:10.136Z,4.55
2022-08-19T08:00:24.246Z,5.85
2022-08-19T08:01:36.707Z,4.28
2022-08-19T08:02:55.768Z,4.75
2022-08-19T08:04:26.912Z,3.95
2022-08-19T08:05:57.094Z,4.72
2022-08-19T08:07:31.504Z,5.30
2022-08-19T08:09:01.665Z,5.10
2022-08-19T08:10:21.354Z,4.88
2022-08-19T08:11:33.123Z,5.15
2022-08-19T08:13:09.659Z,4.68
2022-08-19T08:14:29.667Z,4.88
2022-08-19T08:15:46.667Z,5.70
2022-08-19T08:16:58.423Z,5.50
2022-08-19T08:18:12.215Z,5.03
2022-08-19T08:19:25.857Z,4.82
2022-08-19T08:20:37.633Z,5.45
2022-08-19T08:21:49.563Z,4.90
2022-08-19T08:23:19.665Z,4.60
2022-08-19T08:24:34.908Z,4.78
2022-08-19T08:25:46.505Z,4.35
2022-08-19T08:27:01.796Z,4.60
2022-08-19T08:28:17.552Z,4.82
2022-08-19T08:29:34.791Z,4.85
2022-08-19T08:30:49.095Z,4.68
2022-08-19T08:32:02.581Z,5.13
2022-08-19T08:34:26.002Z,4.63
2022-08-19T08:35:37.530Z,5.80
2022-08-19T08:36:49.095Z,4.50
2022-08-19T08:38:00.681Z,5.38
2022-08-19T08:39:21.636Z,5.43
2022-08-19T08:40:45.344Z,5.10
2022-08-19T08:42:17.630Z,5.40
2022-08-19T08:43:32.465Z,4.65
2022-08-19T08:44:48.173Z,4.60
2022-08-19T08:46:04.947Z,5.13
2022-08-19T08:47:19.288Z,4.90
2022-08-19T08:48:34.524Z,4.38
2022-08-19T08:49:53.120Z,4.25
2022-08-19T08:51:06.090Z,4.13
2022-08-19T08:52:32.217Z,5.18
2022-08-19T08:53:46.124Z,4.00
2022-08-19T08:54:59.526Z,4.90
2022-08-19T08:56:14.231Z,4.80
2022-08-19T08:58:04.282Z,4.60
2022-08-19T08:59:24.777Z,4.38
2022-08-19T09:00:41.261Z,4.55
2022-08-19T09:01:52.807Z,4.88
2022-08-19T09:03:06.925Z,4.53
2022-08-19T09:04:20.289Z,4.38
2022-08-19T09:05:48.260Z,4.35
2022-08-19T09:07:35.079Z,4.80
2022-08-19T09:09:00.660Z,5.03
2022-08-19T09:10:15.025Z,4.15
2022-08-19T09:11:58.525Z,4.60
2022-08-19T09:13:22.645Z,4.68
2022-08-19T09:14:50.159Z,4.47
2022-08-19T09:16:12.763Z,4.22
2022-08-19T09:17:31.510Z,4.95
2022-08-19T09:18:45.553Z,4.55
2022-08-19T09:20:06.086Z,4.68
2022-08-19T09:21:25.717Z,4.25
2022-08-19T09:22:45.107Z,4.03
2022-08-19T09:23:58.480Z,4.43
2022-08-19T09:25:12.928Z,4.25
2022-08-19T09:26:25.277Z,4.32
2022-08-19T09:28:02.518Z,4.28
2022-08-19T09:29:14.667Z,4.45
2022-08-19T09:30:29.532Z,4.43
2022-08-19T09:31:42.972Z,4.05
2022-08-19T09:32:55.674Z,3.53
2022-08-19T09:34:21.049Z,3.78
2022-08-19T09:35:53.064Z,4.10
2022-08-19T09:37:06.257Z,4.43
2022-08-19T09:38:17.792Z,4.25
2022-08-19T09:39:35.946Z,3.88
2022-08-19T09:40:47.805Z,4.07
2022-08-19T09:41:59.296Z,4.20
2022-08-19T09:43:13.433Z,4.30
2022-08-19T09:44:25.276Z,3.95
2022-08-19T09:45:38.576Z,4.15
2022-08-19T09:46:50.071Z,4.15
2022-08-19T09:48:01.557Z,3.92
2022-08-19T09:49:13.539Z,3.35
2022-08-19T09:50:25.123Z,4.32
2022-08-19T09:51:36.669Z,3.60
2022-08-19T09:52:55.673Z,3.60
2022-08-19T09:54:11.336Z,4.10
2022-08-19T09:55:23.096Z,3.92
2022-08-19T09:56:35.654Z,3.83
2022-08-19T09:57:47.209Z,3.95
2022-08-19T09:59:00.521Z,3.92
2022-08-19T10:00:12.267Z,3.67
2022-08-19T10:01:26.324Z,3.83
2022-08-19T10:02:37.951Z,3.58
2022-08-19T10:03:52.141Z,3.67
2022-08-19T10:05:27.031Z,3.83
2022-08-19T10:06:45.990Z,3.33
2022-08-19T10:07:58.655Z,3.35
2022-08-19T10:09:11.776Z,4.15
2022-08-19T10:10:23.418Z,4.38
2022-08-19T10:11:40.086Z,3.58
2022-08-19T10:12:53.990Z,4.10
2022-08-19T10:14:08.869Z,4.53
2022-08-19T10:15:29.165Z,3.45
2022-08-19T10:16:42.860Z,3.67
2022-08-19T10:17:55.211Z,3.40
2022-08-19T10:19:07.815Z,3.88
2022-08-19T10:20:19.384Z,3.63
2022-08-19T10:21:32.366Z,3.00
2022-08-19T10:22:45.559Z,2.95
2022-08-19T10:23:58.734Z,2.90
2022-08-19T10:25:10.983Z,3.13
2022-08-19T10:26:23.924Z,3.67
2022-08-19T10:27:38.913Z,3.30
2022-08-19T10:28:51.450Z,2.58
2022-08-19T10:30:09.882Z,2.65
2022-08-19T10:32:01.077Z,2.83
2022-08-19T10:32:55.719Z,3.25
2022-08-19T10:34:07.663Z,3.10
2022-08-19T10:35:21.940Z,3.05
2022-08-19T10:36:35.784Z,3.35
2022-08-19T10:37:56.794Z,3.40
2022-08-19T10:39:10.624Z,3.65
2022-08-19T10:40:22.383Z,2.55
2022-08-19T10:41:35.479Z,2.85
2022-08-19T10:42:47.047Z,2.72
2022-08-19T10:44:04.188Z,2.72
2022-08-19T10:45:16.183Z,2.72
2022-08-19T10:46:28.407Z,2.90
2022-08-19T10:47:39.970Z,3.72
2022-08-19T10:48:51.655Z,3.10
2022-08-19T10:50:22.527Z,2.92
2022-08-19T10:51:59.367Z,3.40
2022-08-19T10:53:10.880Z,3.72
2022-08-19T10:54:32.111Z,3.38
2022-08-19T10:56:04.365Z,2.97
2022-08-19T10:57:16.624Z,3.13
2022-08-19T10:58:28.142Z,3.30
2022-08-19T10:59:39.834Z,3.47
2022-08-19T11:00:56.174Z,3.22
2022-08-19T11:02:10.750Z,3.00
2022-08-19T11:03:22.699Z,3.28
2022-08-19T11:04:34.526Z,3.00
2022-08-19T11:05:47.486Z,3.25
2022-08-19T11:06:59.046Z,3.75
2022-08-19T11:08:22.634Z,3.55
2022-08-19T11:09:39.943Z,3.45
2022-08-19T11:10:54.771Z,3.50
2022-08-19T11:12:06.680Z,3.70
2022-08-19T11:13:18.202Z,3.85
2022-08-19T11:14:32.189Z,3.38
2022-08-19T11:15:48.737Z,3.10
2022-08-19T11:17:00.281Z,3.25
2022-08-19T11:18:13.257Z,3.05
2022-08-19T11:19:25.159Z,2.97
2022-08-19T11:20:36.654Z,2.67
2022-08-19T11:21:48.917Z,2.83
2022-08-19T11:23:00.982Z,2.90
2022-08-19T11:24:21.406Z,3.35
2022-08-19T11:25:32.895Z,2.75
2022-08-19T11:26:45.405Z,2.88
2022-08-19T11:27:56.881Z,3.03
2022-08-19T11:29:12.457Z,3.47
2022-08-19T11:30:24.278Z,3.28
2022-08-19T11:31:40.056Z,3.05
2022-08-19T11:32:54.442Z,3.53
2022-08-19T11:34:08.030Z,3.10
2022-08-19T11:35:20.547Z,4.18
2022-08-19T11:36:33.775Z,2.97
2022-08-19T11:37:45.301Z,3.03
2022-08-19T11:38:56.843Z,3.58
2022-08-19T11:40:08.779Z,2.70
2022-08-19T11:41:21.295Z,3.38
2022-08-19T11:42:51.595Z,2.92
2022-08-19T11:44:04.324Z,3.30
2022-08-19T11:45:15.840Z,3.15
2022-08-19T11:46:30.729Z,3.28
2022-08-19T11:47:42.222Z,2.85
2022-08-19T11:48:53.769Z,3.00
2022-08-19T11:50:06.447Z,3.17
2022-08-19T11:51:19.822Z,3.72
2022-08-19T11:52:31.350Z,3.25
2022-08-19T11:53:42.914Z,3.10
2022-08-19T11:54:54.614Z,3.60
2022-08-19T11:56:07.230Z,3.20
2022-08-19T11:57:20.691Z,3.67
2022-08-19T11:58:32.332Z,3.08
2022-08-19T11:59:48.815Z,3.03
2022-08-19T12:01:00.345Z,3.50
2022-08-19T12:02:11.850Z,3.50
2022-08-19T12:03:23.535Z,3.22
2022-08-19T12:04:35.719Z,3.03
2022-08-19T12:05:47.335Z,3.58
2022-08-19T12:06:58.863Z,2.97
2022-08-19T12:08:10.434Z,3.55
2022-08-19T12:09:23.171Z,3.45
2022-08-19T12:10:34.966Z,2.92
2022-08-19T12:11:46.841Z,3.45
2022-08-19T12:12:59.042Z,3.58
2022-08-19T12:14:14.709Z,3.30
2022-08-19T12:15:28.874Z,3.03
2022-08-19T12:16:51.433Z,2.83
2022-08-19T12:18:05.084Z,3.30
2022-08-19T12:19:22.446Z,3.00
2022-08-19T12:20:37.962Z,3.65
2022-08-19T12:21:49.546Z,3.20
2022-08-19T12:23:01.097Z,3.75
2022-08-19T12:24:12.662Z,3.90
2022-08-19T12:25:24.231Z,3.50
2022-08-19T12:26:53.285Z,3.42
2022-08-19T12:28:05.300Z,3.58
2022-08-19T12:29:20.381Z,3.30
2022-08-19T12:30:34.804Z,3.70
2022-08-19T12:31:46.312Z,3.63
2022-08-19T12:32:58.331Z,3.53
2022-08-19T12:34:10.407Z,3.10
2022-08-19T12:35:22.811Z,3.63
2022-08-19T12:36:34.369Z,2.80
2022-08-19T12:37:53.602Z,3.50
2022-08-19T12:39:10.667Z,3.08
2022-08-19T12:40:22.729Z,3.50
2022-08-19T12:41:34.590Z,3.40
2022-08-19T12:42:46.604Z,3.10
2022-08-19T12:43:59.347Z,3.83
2022-08-19T12:45:13.562Z,3.55
2022-08-19T12:46:26.179Z,3.20
2022-08-19T12:47:38.191Z,3.20
2022-08-19T12:48:56.088Z,3.80
2022-08-19T12:50:09.652Z,3.38
2022-08-19T12:51:21.275Z,3.53
2022-08-19T12:52:32.794Z,3.90
2022-08-19T12:53:44.375Z,3.03
2022-08-19T12:54:57.041Z,3.28
2022-08-19T12:56:11.530Z,3.58
2022-08-19T12:57:31.494Z,3.53
2022-08-19T12:58:48.940Z,3.10
2022-08-19T13:00:14.456Z,4.00
2022-08-19T13:01:26.144Z,3.80
2022-08-19T13:02:39.365Z,4.15
2022-08-19T13:03:53.527Z,4.32
2022-08-19T13:05:06.147Z,7.25
2022-08-19T13:06:19.445Z,9.10
2022-08-19T13:07:33.010Z,8.60
2022-08-19T13:08:46.675Z,7.53
2022-08-19T13:09:58.274Z,8.77
2022-08-19T13:11:12.795Z,5.13
2022-08-19T13:12:25.318Z,3.97
2022-08-19T13:13:36.927Z,3.42
2022-08-19T13:14:52.027Z,3.05
2022-08-19T13:16:04.317Z,3.42
2022-08-19T13:17:16.905Z,3.60
2022-08-19T13:18:28.462Z,4.00
2022-08-19T13:19:41.071Z,3.33
2022-08-19T13:20:53.152Z,3.83
2022-08-19T13:22:04.778Z,3.10
2022-08-19T13:23:24.796Z,3.55
2022-08-19T13:24:37.688Z,3.72
2022-08-19T13:26:03.530Z,4.05
2022-08-19T13:27:15.266Z,3.05
2022-08-19T13:28:29.036Z,3.80
2022-08-19T13:30:02.728Z,2.95
2022-08-19T13:31:34.452Z,3.63
2022-08-19T13:33:04.242Z,3.38
2022-08-19T13:34:16.626Z,3.05
2022-08-19T13:35:28.255Z,3.95
2022-08-19T13:36:40.172Z,3.53
2022-08-19T13:37:51.728Z,3.00
2022-08-19T13:39:04.245Z,3.20
2022-08-19T13:40:18.459Z,3.10
2022-08-19T13:41:30.366Z,3.38
2022-08-19T13:42:42.342Z,3.28
2022-08-19T13:43:55.243Z,3.70
2022-08-19T13:45:07.757Z,2.95
2022-08-19T13:46:20.854Z,3.40
2022-08-19T13:47:32.583Z,3.70
2022-08-19T13:48:44.497Z,3.30
2022-08-19T13:49:55.992Z,3.20
2022-08-19T13:51:10.896Z,3.35
2022-08-19T13:52:22.380Z,3.35
2022-08-19T13:53:34.043Z,3.00
2022-08-19T13:54:49.455Z,3.40
2022-08-19T13:56:01.412Z,3.85
2022-08-19T13:57:14.222Z,3.30
2022-08-19T13:58:25.812Z,3.45
2022-08-19T13:59:37.330Z,3.65
2022-08-19T14:00:49.283Z,3.40
2022-08-19T14:02:01.321Z,3.50
2022-08-19T14:03:13.122Z,3.53
2022-08-19T14:04:24.617Z,3.30
2022-08-19T14:05:36.279Z,3.10
2022-08-19T14:06:47.791Z,3.10
2022-08-19T14:08:00.091Z,3.30
2022-08-19T14:09:11.593Z,3.28
2022-08-19T14:10:24.346Z,3.42
2022-08-19T14:11:35.866Z,3.42
2022-08-19T14:12:47.539Z,3.53
2022-08-19T14:13:59.065Z,3.22
2022-08-19T14:15:11.752Z,3.88
2022-08-19T14:16:23.234Z,3.00
2022-08-19T14:17:35.927Z,3.40
2022-08-19T14:18:47.470Z,3.88
2022-08-19T14:19:59.533Z,3.80
2022-08-19T14:21:16.155Z,3.80
2022-08-19T14:22:27.735Z,3.35
2022-08-19T14:23:39.245Z,3.45
2022-08-19T14:24:51.280Z,3.63
2022-08-19T14:26:10.984Z,4.68
2022-08-19T14:27:22.682Z,3.67
2022-08-19T14:28:34.520Z,3.35
2022-08-19T14:29:46.839Z,4.00
2022-08-19T14:30:58.319Z,4.13
2022-08-19T14:32:11.483Z,3.50
2022-08-19T14:33:28.439Z,3.17
2022-08-19T14:34:42.148Z,3.40
2022-08-19T14:35:53.681Z,3.60
2022-08-19T14:37:13.029Z,3.40
2022-08-19T14:38:31.430Z,3.25
2022-08-19T14:39:43.536Z,6.35
2022-08-19T14:40:55.108Z,3.72
2022-08-19T14:42:11.404Z,3.58
2022-08-19T14:43:24.705Z,3.78
2022-08-19T14:44:36.301Z,3.78
2022-08-19T14:45:47.951Z,4.30
2022-08-19T14:47:01.571Z,3.88
2022-08-19T14:48:19.269Z,3.70
2022-08-19T14:49:35.334Z,3.85
2022-08-19T14:50:53.885Z,4.45
2022-08-19T14:52:05.936Z,4.38
2022-08-19T14:53:18.072Z,6.55
2022-08-19T14:54:30.436Z,5.40
2022-08-19T14:55:43.180Z,4.25
2022-08-19T14:56:54.835Z,4.82
2022-08-19T14:58:08.207Z,4.10
2022-08-19T14:59:22.939Z,3.50
2022-08-19T15:00:34.441Z,3.72
2022-08-19T15:01:48.516Z,5.47
2022-08-19T15:03:00.093Z,33.28
2022-08-19T15:04:11.637Z,20.92
2022-08-19T15:05:23.235Z,6.75
2022-08-19T15:06:35.023Z,5.25
2022-08-19T15:07:46.498Z,4.63
2022-08-19T15:09:03.330Z,3.70
2022-08-19T15:10:16.059Z,3.90
2022-08-19T15:11:28.735Z,3.85
2022-08-19T15:12:43.749Z,3.70
2022-08-19T15:13:56.298Z,4.03
2022-08-19T15:15:09.386Z,3.38
2022-08-19T15:16:21.785Z,3.10
2022-08-19T15:17:43.739Z,3.20
2022-08-19T15:18:58.706Z,3.92
2022-08-19T15:20:10.991Z,12.35
2022-08-19T15:21:26.590Z,5.30
2022-08-19T15:22:39.161Z,5.60
2022-08-19T15:23:51.349Z,5.07
2022-08-19T15:25:03.285Z,4.20
2022-08-19T15:26:16.364Z,3.03
2022-08-19T15:27:28.086Z,3.20
2022-08-19T15:28:40.786Z,5.35
2022-08-19T15:29:56.492Z,4.20
2022-08-19T15:31:23.265Z,3.42
2022-08-19T15:32:39.732Z,3.72
2022-08-19T15:33:51.716Z,3.60
2022-08-19T15:35:04.683Z,3.65
2022-08-19T15:36:16.740Z,3.28
2022-08-19T15:37:30.598Z,3.35
2022-08-19T15:38:46.127Z,3.33
2022-08-19T15:39:57.840Z,3.20
2022-08-19T15:41:26.045Z,3.35
2022-08-19T15:42:38.066Z,3.63
2022-08-19T15:43:58.863Z,4.28
2022-08-19T15:45:11.335Z,3.72
2022-08-19T15:46:24.572Z,3.55
2022-08-19T15:47:36.290Z,3.60
2022-08-19T15:48:57.181Z,3.25
2022-08-19T15:50:13.011Z,4.47
2022-08-19T15:51:25.078Z,3.05
2022-08-19T15:52:36.691Z,3.83
2022-08-19T15:53:57.203Z,3.00
2022-08-19T15:55:09.135Z,3.72
2022-08-19T15:56:47.589Z,3.28
2022-08-19T15:58:30.004Z,3.80
2022-08-19T16:00:02.734Z,3.60
2022-08-19T16:01:41.184Z,3.97
2022-08-19T16:03:11.122Z,2.92
2022-08-19T16:04:41.208Z,3.45
2022-08-19T16:06:11.315Z,2.97
2022-08-19T16:07:23.379Z,4.68
2022-08-19T16:08:49.179Z,3.50
2022-08-19T16:10:26.124Z,3.15
2022-08-19T16:11:39.405Z,3.60
2022-08-19T16:12:51.281Z,3.72
2022-08-19T16:14:03.433Z,4.95
2022-08-19T16:15:15.199Z,4.40
2022-08-19T16:16:33.671Z,4.57
2022-08-19T16:17:45.586Z,4.50
2022-08-19T16:19:10.548Z,4.18
2022-08-19T16:20:24.226Z,4.10
2022-08-19T16:21:36.568Z,3.90
2022-08-19T16:22:49.343Z,3.67
2022-08-19T16:24:03.022Z,3.70
2022-08-19T16:25:15.024Z,4.10
2022-08-19T16:26:29.551Z,4.10
2022-08-19T16:27:54.306Z,4.45
2022-08-19T16:29:14.857Z,3.60
2022-08-19T16:30:48.628Z,3.55
2022-08-19T16:32:06.660Z,4.05
2022-08-19T16:33:19.936Z,4.70
2022-08-19T16:34:34.805Z,3.88
2022-08-19T16:35:47.140Z,4.43
2022-08-19T16:37:10.389Z,5.25
2022-08-19T16:38:23.031Z,5.45
2022-08-19T16:39:34.606Z,5.18